Time;durP1;ratioP1;P1;durP2;ratioP2;P2;SDS_P1;SDS_P2;PMS_P1;PMS_P2;Temp;Humidity;BMP_temperature;BMP_pressure;BME280_temperature;BME280_humidity;BME280_pressure;Samples;Min_cycle;Max_cycle;Signal;HPM_P1;HPM_P2
2023/11/16 00:00:41;;;;;;;218.40;60.50;;;;;;;;;;5023279;28;20242;-44
2023/11/16 00:03:07;;;;;;;219.93;61.70;;;;;;;;;;5021823;28;20183;-44
2023/11/16 00:05:36;;;;;;;218.88;60.35;;;;;;;;;;5022634;28;20207;-44
2023/11/16 00:08:06;;;;;;;221.55;61.00;;;;;;;;;;5023130;28;20187;-43
2023/11/16 00:10:35;;;;;;;220.10;60.70;;;;;;;;;;4999464;28;20187;-44
2023/11/16 00:13:02;;;;;;;218.65;63.65;;;;;;;;;;5023433;28;20263;-44
2023/11/16 00:15:29;;;;;;;215.60;58.28;;;;;;;;;;5021458;28;20203;-44
2023/11/16 00:17:55;;;;;;;216.80;58.50;;;;;;;;;;5013160;28;20199;-44
2023/11/16 00:20:22;;;;;;;218.93;61.87;;;;;;;;;;5011949;28;20172;-44
2023/11/16 00:22:48;;;;;;;218.73;60.50;;;;;;;;;;5013693;28;20756;-44
2023/11/16 00:25:16;;;;;;;221.63;64.67;;;;;;;;;;5013976;28;20187;-44
2023/11/16 00:27:42;;;;;;;220.60;61.00;;;;;;;;;;5024305;28;20438;-44
2023/11/16 00:30:09;;;;;;;221.90;62.10;;;;;;;;;;5025515;28;20583;-44
2023/11/16 00:32:35;;;;;;;216.75;59.83;;;;;;;;;;5016097;28;20184;-44
2023/11/16 00:35:01;;;;;;;216.00;60.77;;;;;;;;;;5004322;28;20191;-44
2023/11/16 00:37:27;;;;;;;217.47;59.80;;;;;;;;;;5019680;28;20463;-44
2023/11/16 00:39:57;;;;;;;218.27;61.65;;;;;;;;;;5002296;28;20537;-44
2023/11/16 00:42:23;;;;;;;215.77;58.88;;;;;;;;;;5011889;28;20164;-43
2023/11/16 00:44:49;;;;;;;216.37;60.40;;;;;;;;;;5020051;28;20655;-44
2023/11/16 00:47:18;;;;;;;216.87;58.90;;;;;;;;;;5023403;28;20957;-44
2023/11/16 00:49:45;;;;;;;215.45;57.50;;;;;;;;;;5020264;28;20445;-44
2023/11/16 00:52:11;;;;;;;216.60;60.25;;;;;;;;;;5015428;28;20180;-44
2023/11/16 00:54:37;;;;;;;215.00;57.67;;;;;;;;;;5023268;28;20182;-44
2023/11/16 00:57:03;;;;;;;214.70;59.17;;;;;;;;;;5020121;28;20482;-44
2023/11/16 00:59:30;;;;;;;217.73;61.03;;;;;;;;;;5022818;28;20460;-44
2023/11/16 01:01:58;;;;;;;214.75;59.25;;;;;;;;;;5019898;28;20409;-44
2023/11/16 01:04:24;;;;;;;217.25;62.35;;;;;;;;;;5017752;28;20171;-44
2023/11/16 01:06:50;;;;;;;218.43;61.03;;;;;;;;;;5019000;28;20702;-44
2023/11/16 01:09:16;;;;;;;216.37;61.13;;;;;;;;;;5020555;28;20190;-44
2023/11/16 01:11:43;;;;;;;215.13;60.03;;;;;;;;;;5023016;28;20417;-44
2023/11/16 01:14:09;;;;;;;217.73;62.38;;;;;;;;;;5018755;28;20180;-45
2023/11/16 01:16:42;;;;;;;215.85;60.05;;;;;;;;;;5019987;28;20211;-44
2023/11/16 01:19:12;;;;;;;217.50;61.95;;;;;;;;;;5020128;28;20543;-45
2023/11/16 01:21:44;;;;;;;214.18;59.28;;;;;;;;;;5019682;28;20165;-44
2023/11/16 01:24:11;;;;;;;215.70;59.25;;;;;;;;;;5021194;28;20173;-44
2023/11/16 01:26:39;;;;;;;213.55;58.80;;;;;;;;;;5022989;28;20281;-44
2023/11/16 01:29:08;;;;;;;216.75;61.47;;;;;;;;;;5024849;28;20175;-44
2023/11/16 01:31:35;;;;;;;216.57;62.22;;;;;;;;;;5022281;28;20539;-44
2023/11/16 01:34:00;;;;;;;213.85;58.72;;;;;;;;;;5019149;28;20176;-44
2023/11/16 01:36:26;;;;;;;217.33;62.47;;;;;;;;;;5026364;28;20218;-44
2023/11/16 01:38:53;;;;;;;216.00;59.80;;;;;;;;;;5024739;28;20426;-44
2023/11/16 01:41:19;;;;;;;215.60;60.60;;;;;;;;;;5025863;28;20886;-44
2023/11/16 01:43:48;;;;;;;216.70;60.23;;;;;;;;;;5024119;28;20183;-44
2023/11/16 01:46:15;;;;;;;218.30;62.58;;;;;;;;;;5025203;28;20842;-44
2023/11/16 01:48:43;;;;;;;214.95;59.30;;;;;;;;;;5021475;28;20178;-44
2023/11/16 01:51:14;;;;;;;214.15;60.40;;;;;;;;;;5025773;28;20663;-43
2023/11/16 01:53:41;;;;;;;215.82;60.75;;;;;;;;;;5030680;28;20708;-44
2023/11/16 01:56:08;;;;;;;218.52;63.40;;;;;;;;;;5014623;28;20700;-44
2023/11/16 01:58:34;;;;;;;216.95;61.78;;;;;;;;;;4995219;28;20246;-44
2023/11/16 02:01:01;;;;;;;217.32;61.15;;;;;;;;;;5026923;28;20590;-43
2023/11/16 02:03:28;;;;;;;214.23;57.90;;;;;;;;;;5021672;28;20211;-44
2023/11/16 02:05:56;;;;;;;220.90;65.18;;;;;;;;;;5021286;28;20176;-44
2023/11/16 02:08:23;;;;;;;216.88;63.13;;;;;;;;;;5030123;28;20176;-44
2023/11/16 02:10:48;;;;;;;216.40;60.33;;;;;;;;;;5014767;28;20168;-44
2023/11/16 02:13:17;;;;;;;217.43;61.73;;;;;;;;;;5034265;28;20254;-44
2023/11/16 02:15:43;;;;;;;215.48;58.67;;;;;;;;;;5017691;28;20997;-44
2023/11/16 02:18:13;;;;;;;218.23;63.35;;;;;;;;;;4998324;28;20208;-44
2023/11/16 02:20:40;;;;;;;215.15;59.22;;;;;;;;;;5017445;28;20190;-44
2023/11/16 02:23:06;;;;;;;215.25;59.47;;;;;;;;;;5000224;28;20175;-44
2023/11/16 02:25:41;;;;;;;217.87;62.83;;;;;;;;;;5014808;28;20259;-45
2023/11/16 02:28:07;;;;;;;218.02;64.07;;;;;;;;;;5033818;28;20429;-44
2023/11/16 02:30:34;;;;;;;215.07;59.57;;;;;;;;;;5015897;28;20185;-44
2023/11/16 02:33:01;;;;;;;217.18;62.50;;;;;;;;;;5019503;28;20412;-45
2023/11/16 02:35:26;;;;;;;215.82;60.47;;;;;;;;;;5023900;28;20206;-44
2023/11/16 02:37:53;;;;;;;215.73;60.70;;;;;;;;;;5027834;28;20258;-44
2023/11/16 02:40:20;;;;;;;216.38;60.40;;;;;;;;;;5015251;28;20419;-44
2023/11/16 02:42:47;;;;;;;215.35;60.60;;;;;;;;;;5033788;28;20171;-44
2023/11/16 02:45:13;;;;;;;216.65;63.00;;;;;;;;;;4998195;28;20184;-44
2023/11/16 02:47:39;;;;;;;215.80;61.65;;;;;;;;;;5019697;28;20577;-45
2023/11/16 02:50:05;;;;;;;217.43;63.28;;;;;;;;;;5014014;28;20219;-45
2023/11/16 02:52:32;;;;;;;216.65;62.38;;;;;;;;;;5019018;28;20673;-44
2023/11/16 02:54:59;;;;;;;217.10;63.63;;;;;;;;;;5030967;28;20164;-44
2023/11/16 02:57:25;;;;;;;215.88;61.40;;;;;;;;;;5013405;28;20290;-44
2023/11/16 02:59:51;;;;;;;215.23;59.73;;;;;;;;;;4996304;28;20253;-44
2023/11/16 03:02:18;;;;;;;216.30;62.05;;;;;;;;;;5007154;28;20447;-44
2023/11/16 03:04:44;;;;;;;217.90;62.70;;;;;;;;;;5004188;28;20177;-43
2023/11/16 03:07:10;;;;;;;219.00;64.72;;;;;;;;;;4999441;28;20245;-44
2023/11/16 03:09:37;;;;;;;216.80;62.53;;;;;;;;;;5011937;28;20446;-44
2023/11/16 03:12:03;;;;;;;215.75;61.30;;;;;;;;;;4993795;28;20609;-44
2023/11/16 03:14:29;;;;;;;212.00;58.05;;;;;;;;;;5010781;28;20183;-44
2023/11/16 03:16:55;;;;;;;214.83;60.17;;;;;;;;;;4999954;28;20222;-45
2023/11/16 03:19:25;;;;;;;212.95;58.30;;;;;;;;;;5002585;28;20399;-44
2023/11/16 03:21:53;;;;;;;218.45;65.00;;;;;;;;;;5007788;28;20177;-44
2023/11/16 03:24:19;;;;;;;220.15;65.32;;;;;;;;;;4977669;28;20176;-45
2023/11/16 03:26:45;;;;;;;217.13;62.75;;;;;;;;;;5012983;28;20227;-44
2023/11/16 03:29:11;;;;;;;217.43;62.10;;;;;;;;;;4995674;28;20259;-44
2023/11/16 03:31:40;;;;;;;212.87;58.70;;;;;;;;;;5006601;28;20207;-45
2023/11/16 03:34:06;;;;;;;216.98;62.60;;;;;;;;;;5012496;28;20418;-44
2023/11/16 03:36:32;;;;;;;216.97;61.63;;;;;;;;;;5007011;28;20213;-44
2023/11/16 03:38:59;;;;;;;214.88;61.03;;;;;;;;;;4994302;28;20456;-44
2023/11/16 03:41:25;;;;;;;217.63;61.83;;;;;;;;;;5012052;28;20163;-44
2023/11/16 03:43:51;;;;;;;215.43;60.53;;;;;;;;;;4994621;28;20699;-45
2023/11/16 03:46:17;;;;;;;216.77;62.03;;;;;;;;;;5005249;28;20196;-44
2023/11/16 03:48:42;;;;;;;214.23;59.73;;;;;;;;;;5002825;28;20411;-44
2023/11/16 03:51:08;;;;;;;213.30;57.70;;;;;;;;;;4996640;28;20415;-45
2023/11/16 03:53:36;;;;;;;217.47;61.97;;;;;;;;;;5010721;28;20411;-44
2023/11/16 03:56:01;;;;;;;217.60;62.63;;;;;;;;;;4992152;28;20970;-44
2023/11/16 03:58:27;;;;;;;215.00;60.13;;;;;;;;;;5008892;28;20176;-44
2023/11/16 04:00:53;;;;;;;215.10;59.60;;;;;;;;;;4999157;28;20416;-44
2023/11/16 04:03:22;;;;;;;214.90;59.53;;;;;;;;;;5000730;28;20414;-45
2023/11/16 04:05:48;;;;;;;215.73;59.78;;;;;;;;;;5006331;28;20422;-45
2023/11/16 04:08:15;;;;;;;220.38;64.00;;;;;;;;;;4992736;28;20211;-45
2023/11/16 04:10:41;;;;;;;213.98;57.33;;;;;;;;;;5011577;28;20179;-44
2023/11/16 04:13:07;;;;;;;214.50;59.03;;;;;;;;;;4994834;28;20177;-44
2023/11/16 04:15:33;;;;;;;217.35;60.95;;;;;;;;;;5004451;28;20457;-44
2023/11/16 04:17:59;;;;;;;213.55;57.67;;;;;;;;;;4992547;28;20283;-44
2023/11/16 04:20:26;;;;;;;220.43;59.33;;;;;;;;;;4988485;23;1384742;-42
2023/11/16 04:22:53;;;;;;;215.68;58.17;;;;;;;;;;5010801;28;20215;-42
2023/11/16 04:25:25;;;;;;;215.35;59.78;;;;;;;;;;5031592;28;20233;-42
2023/11/16 04:27:51;;;;;;;217.45;58.92;;;;;;;;;;5031191;28;20160;-42
2023/11/16 04:30:21;;;;;;;214.27;55.72;;;;;;;;;;5031391;28;20179;-42
2023/11/16 04:32:49;;;;;;;214.90;57.22;;;;;;;;;;5002394;28;20536;-42
2023/11/16 04:35:15;;;;;;;215.00;57.45;;;;;;;;;;4998096;28;20195;-41
2023/11/16 04:37:41;;;;;;;216.70;59.25;;;;;;;;;;5005423;28;20655;-41
2023/11/16 04:40:13;;;;;;;215.13;58.30;;;;;;;;;;5012093;28;20172;-42
2023/11/16 04:42:41;;;;;;;217.20;60.00;;;;;;;;;;5011405;28;20246;-42
2023/11/16 04:45:11;;;;;;;214.40;56.92;;;;;;;;;;4997231;28;20173;-43
2023/11/16 04:47:37;;;;;;;212.68;56.13;;;;;;;;;;5003052;28;20175;-42
2023/11/16 04:50:06;;;;;;;213.40;56.88;;;;;;;;;;5004782;28;20172;-42
2023/11/16 04:52:34;;;;;;;212.35;55.80;;;;;;;;;;4995442;28;20238;-42
2023/11/16 04:55:00;;;;;;;212.60;56.20;;;;;;;;;;5011959;28;20642;-43
2023/11/16 04:57:26;;;;;;;214.13;56.92;;;;;;;;;;4991724;28;20204;-43
2023/11/16 04:59:53;;;;;;;214.55;57.70;;;;;;;;;;4992636;28;20605;-43
2023/11/16 05:02:19;;;;;;;215.30;56.97;;;;;;;;;;5000427;28;20203;-43
2023/11/16 05:04:46;;;;;;;216.20;58.50;;;;;;;;;;5008551;28;20176;-42
2023/11/16 05:07:12;;;;;;;216.82;58.00;;;;;;;;;;5014997;28;20476;-42
2023/11/16 05:09:38;;;;;;;214.10;56.78;;;;;;;;;;5015816;28;20160;-42
2023/11/16 05:12:05;;;;;;;215.75;56.60;;;;;;;;;;4996647;28;20556;-42
2023/11/16 05:14:31;;;;;;;215.40;58.13;;;;;;;;;;5010940;28;20223;-42
2023/11/16 05:16:57;;;;;;;215.53;58.43;;;;;;;;;;5011739;28;20266;-42
2023/11/16 05:19:23;;;;;;;214.93;57.00;;;;;;;;;;5014876;28;20406;-42
2023/11/16 05:21:50;;;;;;;215.43;57.85;;;;;;;;;;5012179;28;20200;-42
2023/11/16 05:24:16;;;;;;;214.88;57.63;;;;;;;;;;4995917;28;20196;-42
2023/11/16 05:26:44;;;;;;;214.38;56.05;;;;;;;;;;5014176;28;20234;-42
2023/11/16 05:29:10;;;;;;;212.05;55.70;;;;;;;;;;5000276;28;20640;-42
2023/11/16 05:31:36;;;;;;;213.32;57.63;;;;;;;;;;5006488;28;20214;-42
2023/11/16 05:34:04;;;;;;;213.93;56.50;;;;;;;;;;5008604;28;20184;-42
2023/11/16 05:36:30;;;;;;;213.70;56.47;;;;;;;;;;4998336;28;20198;-42
2023/11/16 05:38:56;;;;;;;213.65;56.00;;;;;;;;;;5015155;28;20652;-42
2023/11/16 05:41:22;;;;;;;213.70;58.55;;;;;;;;;;4996249;28;20246;-42
2023/11/16 05:43:48;;;;;;;216.95;60.15;;;;;;;;;;5010265;28;20179;-42
2023/11/16 05:46:15;;;;;;;219.73;63.15;;;;;;;;;;5004007;28;20298;-42
2023/11/16 05:48:41;;;;;;;212.63;56.00;;;;;;;;;;5001875;28;20176;-43
2023/11/16 05:51:07;;;;;;;214.50;56.92;;;;;;;;;;5012099;28;20192;-42
2023/11/16 05:53:34;;;;;;;213.07;57.00;;;;;;;;;;4995259;28;20334;-43
2023/11/16 05:56:00;;;;;;;212.98;55.92;;;;;;;;;;5013554;28;20515;-42
2023/11/16 05:58:26;;;;;;;215.13;58.03;;;;;;;;;;5000096;28;20178;-42
2023/11/16 06:00:52;;;;;;;212.97;55.77;;;;;;;;;;5005313;28;20198;-42
2023/11/16 06:03:25;;;;;;;214.00;58.05;;;;;;;;;;5008243;28;20494;-42
2023/11/16 06:05:51;;;;;;;216.77;59.75;;;;;;;;;;4998323;28;20183;-42
2023/11/16 06:08:18;;;;;;;210.68;54.67;;;;;;;;;;5014448;28;20175;-42
2023/11/16 06:10:44;;;;;;;215.77;59.80;;;;;;;;;;4995417;28;20200;-42
2023/11/16 06:13:10;;;;;;;217.03;58.13;;;;;;;;;;5009773;28;20183;-42
2023/11/16 06:15:36;;;;;;;214.77;57.28;;;;;;;;;;5002361;28;20474;-42
2023/11/16 06:18:02;;;;;;;215.73;57.80;;;;;;;;;;5008930;28;20534;-42
2023/11/16 06:20:29;;;;;;;217.18;60.03;;;;;;;;;;5012612;28;20421;-42
2023/11/16 06:22:55;;;;;;;215.57;55.85;;;;;;;;;;5012525;28;20798;-42
2023/11/16 06:25:21;;;;;;;212.60;55.08;;;;;;;;;;5012445;28;20180;-42
2023/11/16 06:27:48;;;;;;;214.70;56.40;;;;;;;;;;5013146;28;20179;-42
2023/11/16 06:30:14;;;;;;;212.55;54.78;;;;;;;;;;5006843;28;20540;-42
2023/11/16 06:32:42;;;;;;;215.23;59.63;;;;;;;;;;5025115;28;20209;-42
2023/11/16 06:35:08;;;;;;;215.70;56.95;;;;;;;;;;5013527;28;20257;-42
2023/11/16 06:37:34;;;;;;;211.40;54.53;;;;;;;;;;5013023;28;20220;-42
2023/11/16 06:40:00;;;;;;;215.48;57.00;;;;;;;;;;5021996;28;20263;-42
2023/11/16 06:42:26;;;;;;;213.30;54.78;;;;;;;;;;5022278;28;20636;-42
2023/11/16 06:44:53;;;;;;;215.30;56.97;;;;;;;;;;5021205;28;20261;-42
2023/11/16 06:47:19;;;;;;;219.73;58.70;;;;;;;;;;5025789;28;20518;-42
2023/11/16 06:49:48;;;;;;;220.13;59.83;;;;;;;;;;5017945;28;20245;-42
2023/11/16 06:52:17;;;;;;;214.77;57.75;;;;;;;;;;5016015;28;20208;-43
2023/11/16 06:54:43;;;;;;;213.88;57.88;;;;;;;;;;5020476;28;20662;-42
2023/11/16 06:57:10;;;;;;;213.48;57.50;;;;;;;;;;5026014;28;20610;-42
2023/11/16 06:59:37;;;;;;;214.70;55.75;;;;;;;;;;5023422;28;20548;-43
2023/11/16 07:02:07;;;;;;;211.23;54.20;;;;;;;;;;5025909;28;20726;-42
2023/11/16 07:04:36;;;;;;;214.63;56.03;;;;;;;;;;5021747;28;20693;-42
2023/11/16 07:07:02;;;;;;;216.38;60.13;;;;;;;;;;5024478;28;20184;-43
2023/11/16 07:09:28;;;;;;;212.45;55.38;;;;;;;;;;5026260;28;20262;-43
2023/11/16 07:11:54;;;;;;;214.47;57.90;;;;;;;;;;5024766;28;20275;-42
2023/11/16 07:14:20;;;;;;;212.30;55.83;;;;;;;;;;5024990;28;20417;-42
2023/11/16 07:16:47;;;;;;;214.45;56.88;;;;;;;;;;5022451;28;20676;-42
2023/11/16 07:19:13;;;;;;;216.43;58.35;;;;;;;;;;5023645;28;20513;-42
2023/11/16 07:21:39;;;;;;;214.83;56.60;;;;;;;;;;5021610;28;20213;-42
2023/11/16 07:24:07;;;;;;;214.57;57.13;;;;;;;;;;5021481;28;20421;-42
2023/11/16 07:26:33;;;;;;;218.98;60.13;;;;;;;;;;5026691;28;20422;-42
2023/11/16 07:29:00;;;;;;;213.20;57.17;;;;;;;;;;5028400;28;20182;-42
2023/11/16 07:31:28;;;;;;;212.95;54.50;;;;;;;;;;5017674;28;20205;-42
2023/11/16 07:33:54;;;;;;;215.00;57.22;;;;;;;;;;5024766;28;20278;-42
2023/11/16 07:36:25;;;;;;;219.83;60.23;;;;;;;;;;5022913;28;20281;-42
2023/11/16 07:38:52;;;;;;;215.05;56.83;;;;;;;;;;5021007;28;20987;-42
2023/11/16 07:41:18;;;;;;;211.35;53.67;;;;;;;;;;5023017;28;20222;-43
2023/11/16 07:43:44;;;;;;;211.03;54.93;;;;;;;;;;5026165;28;20279;-42
2023/11/16 07:46:11;;;;;;;215.77;57.33;;;;;;;;;;5025804;28;20766;-42
2023/11/16 07:48:37;;;;;;;215.07;58.00;;;;;;;;;;5016207;28;20181;-42
2023/11/16 07:51:03;;;;;;;212.00;54.53;;;;;;;;;;5018089;28;20207;-42
2023/11/16 07:53:29;;;;;;;214.77;54.97;;;;;;;;;;5023910;28;20968;-42
2023/11/16 07:55:56;;;;;;;218.43;57.30;;;;;;;;;;5023850;28;20990;-43
2023/11/16 07:58:22;;;;;;;212.50;55.90;;;;;;;;;;5023876;28;20163;-42
2023/11/16 08:01:04;;;;;;;212.52;56.88;;;;;;;;;;5022057;28;20199;-42
2023/11/16 08:03:42;;;;;;;216.52;60.45;;;;;;;;;;5016920;28;20542;-42
2023/11/16 08:06:15;;;;;;;210.63;54.50;;;;;;;;;;5013515;28;20645;-41
2023/11/16 08:08:45;;;;;;;212.48;57.80;;;;;;;;;;5025884;28;20248;-42
2023/11/16 08:11:11;;;;;;;215.45;58.28;;;;;;;;;;5021920;28;20196;-42
2023/11/16 08:13:41;;;;;;;212.80;55.83;;;;;;;;;;5025415;28;20609;-42
2023/11/16 08:16:10;;;;;;;212.65;55.55;;;;;;;;;;5017824;28;20249;-42
2023/11/16 08:18:37;;;;;;;217.98;60.97;;;;;;;;;;5009837;28;20176;-41
2023/11/16 08:21:06;;;;;;;214.00;57.05;;;;;;;;;;5011574;28;20200;-42
2023/11/16 08:23:35;;;;;;;223.98;64.07;;;;;;;;;;5011484;28;20203;-42
2023/11/16 08:26:01;;;;;;;226.60;63.97;;;;;;;;;;5008595;28;20231;-41
2023/11/16 08:28:28;;;;;;;222.33;61.93;;;;;;;;;;5014830;28;20184;-41
2023/11/16 08:30:54;;;;;;;222.90;64.72;;;;;;;;;;5021712;28;20434;-43
2023/11/16 08:33:20;;;;;;;220.55;61.78;;;;;;;;;;5016079;28;20171;-42
2023/11/16 08:35:47;;;;;;;217.30;59.10;;;;;;;;;;5016394;28;20192;-43
2023/11/16 08:38:14;;;;;;;216.85;58.72;;;;;;;;;;5015106;28;20179;-42
2023/11/16 08:40:43;;;;;;;219.20;60.15;;;;;;;;;;5022307;28;20178;-41
2023/11/16 08:43:11;;;;;;;220.68;61.03;;;;;;;;;;5021297;28;20172;-42
2023/11/16 08:45:37;;;;;;;216.65;58.55;;;;;;;;;;5021184;28;20182;-41
2023/11/16 08:48:04;;;;;;;217.73;58.25;;;;;;;;;;5021571;28;20172;-42
2023/11/16 08:50:30;;;;;;;220.25;60.20;;;;;;;;;;5023684;28;20191;-42
2023/11/16 08:53:00;;;;;;;216.93;58.45;;;;;;;;;;5021711;28;20258;-42
2023/11/16 08:55:26;;;;;;;217.90;60.33;;;;;;;;;;5001523;28;20195;-42
2023/11/16 08:57:53;;;;;;;219.13;60.27;;;;;;;;;;5010620;28;20193;-42
2023/11/16 09:00:29;;;;;;;219.85;61.78;;;;;;;;;;5021729;28;20411;-42
2023/11/16 09:03:03;;;;;;;220.93;63.83;;;;;;;;;;5019630;28;20181;-42
2023/11/16 09:05:29;;;;;;;224.13;64.47;;;;;;;;;;5012553;28;20175;-42
2023/11/16 09:07:55;;;;;;;221.32;64.03;;;;;;;;;;5020603;28;20671;-43
2023/11/16 09:10:21;;;;;;;221.35;60.88;;;;;;;;;;5028107;28;20180;-42
2023/11/16 09:12:49;;;;;;;219.30;60.95;;;;;;;;;;5026674;28;20183;-43
2023/11/16 09:15:16;;;;;;;221.05;65.25;;;;;;;;;;5010507;28;20562;-43
2023/11/16 09:17:45;;;;;;;219.07;62.38;;;;;;;;;;5016839;28;20695;-42
2023/11/16 09:20:12;;;;;;;219.57;61.95;;;;;;;;;;5022728;28;20175;-42
2023/11/16 09:22:38;;;;;;;218.43;60.88;;;;;;;;;;5022592;28;20216;-43
2023/11/16 09:25:15;;;;;;;219.80;62.28;;;;;;;;;;5020372;28;20668;-43
2023/11/16 09:27:41;;;;;;;218.30;60.65;;;;;;;;;;5014694;28;20179;-43
2023/11/16 09:30:14;;;;;;;224.77;66.03;;;;;;;;;;5027118;28;20176;-43
2023/11/16 09:32:40;;;;;;;221.63;62.88;;;;;;;;;;5003960;28;20216;-43
2023/11/16 09:35:07;;;;;;;219.60;60.88;;;;;;;;;;5012654;28;20222;-43
2023/11/16 09:37:34;;;;;;;218.73;59.95;;;;;;;;;;5015462;28;20212;-42
2023/11/16 09:40:05;;;;;;;222.40;61.53;;;;;;;;;;4996833;28;20204;-43
2023/11/16 09:42:33;;;;;;;220.30;61.13;;;;;;;;;;5010723;28;20245;-43
2023/11/16 09:45:00;;;;;;;219.27;61.15;;;;;;;;;;5011473;28;20164;-43
2023/11/16 09:47:29;;;;;;;219.10;60.65;;;;;;;;;;5027950;28;20593;-43
2023/11/16 09:49:56;;;;;;;222.13;64.50;;;;;;;;;;5018564;28;20191;-42
2023/11/16 09:52:22;;;;;;;220.82;62.05;;;;;;;;;;5024431;28;20191;-43
2023/11/16 09:54:50;;;;;;;219.98;61.20;;;;;;;;;;5033778;28;20176;-43
2023/11/16 09:57:21;;;;;;;219.88;60.10;;;;;;;;;;5031745;28;20223;-43
2023/11/16 09:59:50;;;;;;;220.23;59.25;;;;;;;;;;5014747;28;20241;-43
2023/11/16 10:02:18;;;;;;;219.75;61.72;;;;;;;;;;4996042;28;20185;-43
2023/11/16 10:04:47;;;;;;;217.60;58.75;;;;;;;;;;5009607;28;20182;-43
2023/11/16 10:07:15;;;;;;;218.80;59.85;;;;;;;;;;5003527;28;20169;-43
2023/11/16 10:09:46;;;;;;;218.23;59.42;;;;;;;;;;5002074;28;20648;-43
2023/11/16 10:12:12;;;;;;;218.48;61.65;;;;;;;;;;5010739;28;20193;-43
2023/11/16 10:14:39;;;;;;;219.30;61.10;;;;;;;;;;4994849;28;20173;-43
2023/11/16 10:17:05;;;;;;;220.32;60.72;;;;;;;;;;5013433;28;20279;-42
2023/11/16 10:19:31;;;;;;;222.48;66.13;;;;;;;;;;5012834;28;20180;-42
2023/11/16 10:24:35;;;;;;;222.02;63.28;;;;;;;;;;5023422;28;20478;-42
2023/11/16 10:27:01;;;;;;;222.98;66.22;;;;;;;;;;5030906;28;20666;-42
2023/11/16 10:29:27;;;;;;;221.18;63.35;;;;;;;;;;5032758;28;20173;-42
2023/11/16 10:31:54;;;;;;;220.48;64.22;;;;;;;;;;5013935;28;20523;-43
2023/11/16 10:34:24;;;;;;;219.23;60.38;;;;;;;;;;5030645;28;20212;-42
2023/11/16 10:36:50;;;;;;;231.75;72.55;;;;;;;;;;5019784;28;20247;-43
2023/11/16 10:39:17;;;;;;;220.80;64.10;;;;;;;;;;5023369;28;20201;-42
2023/11/16 10:41:44;;;;;;;220.55;63.72;;;;;;;;;;5028204;28;20428;-42
2023/11/16 10:44:10;;;;;;;221.20;61.53;;;;;;;;;;5020856;28;20235;-43
2023/11/16 10:46:36;;;;;;;220.50;64.43;;;;;;;;;;5033927;28;20171;-43
2023/11/16 10:49:03;;;;;;;224.55;67.10;;;;;;;;;;5016843;28;20662;-42
2023/11/16 10:51:31;;;;;;;220.70;63.67;;;;;;;;;;5027258;28;20180;-42
2023/11/16 10:53:59;;;;;;;218.85;61.90;;;;;;;;;;5023807;28;20211;-42
2023/11/16 10:56:26;;;;;;;219.38;63.28;;;;;;;;;;5020110;28;20647;-42
2023/11/16 10:58:52;;;;;;;220.52;62.60;;;;;;;;;;5031758;28;20541;-42
2023/11/16 11:01:18;;;;;;;221.18;66.45;;;;;;;;;;5012975;28;20175;-42
2023/11/16 11:03:45;;;;;;;221.38;64.38;;;;;;;;;;5030944;28;20188;-42
2023/11/16 11:06:18;;;;;;;222.15;65.43;;;;;;;;;;5019535;28;20747;-42
2023/11/16 11:08:44;;;;;;;222.88;66.63;;;;;;;;;;5023585;28;20189;-42
2023/11/16 11:11:11;;;;;;;220.93;64.22;;;;;;;;;;5026696;28;20180;-42
2023/11/16 11:13:43;;;;;;;217.05;62.03;;;;;;;;;;5015412;28;20229;-42
2023/11/16 11:16:12;;;;;;;220.80;63.15;;;;;;;;;;5032801;28;20260;-42
2023/11/16 11:18:45;;;;;;;220.93;63.25;;;;;;;;;;5013407;28;20288;-42
2023/11/16 11:21:14;;;;;;;221.60;64.07;;;;;;;;;;5028586;28;20549;-42
2023/11/16 11:23:41;;;;;;;222.38;66.85;;;;;;;;;;5031033;28;20253;-43
2023/11/16 11:26:08;;;;;;;225.57;69.65;;;;;;;;;;5031442;28;20650;-42
2023/11/16 11:28:38;;;;;;;222.95;65.70;;;;;;;;;;5031920;28;20682;-42
2023/11/16 11:31:10;;;;;;;220.88;65.60;;;;;;;;;;5032289;28;20164;-42
2023/11/16 11:33:37;;;;;;;219.18;61.13;;;;;;;;;;5033034;28;20238;-42
2023/11/16 11:36:09;;;;;;;221.02;64.18;;;;;;;;;;5032130;28;20570;-42
2023/11/16 11:38:38;;;;;;;219.50;62.95;;;;;;;;;;5017795;28;20224;-42
2023/11/16 11:41:08;;;;;;;216.65;60.83;;;;;;;;;;5025160;28;20501;-43
2023/11/16 11:43:36;;;;;;;215.40;58.33;;;;;;;;;;5026384;28;20219;-42
2023/11/16 11:46:02;;;;;;;220.85;63.35;;;;;;;;;;5016588;28;20174;-42
2023/11/16 11:48:29;;;;;;;220.53;65.50;;;;;;;;;;5032330;28;20256;-42
2023/11/16 11:50:56;;;;;;;217.10;58.97;;;;;;;;;;5013518;28;20506;-42
2023/11/16 11:53:27;;;;;;;217.13;59.92;;;;;;;;;;5028269;28;20193;-42
2023/11/16 11:55:53;;;;;;;221.60;65.80;;;;;;;;;;5019740;28;20291;-42
2023/11/16 11:58:19;;;;;;;218.80;61.00;;;;;;;;;;5020300;28;20251;-42
2023/11/16 12:03:21;;;;;;;226.85;71.03;;;;;;;;;;5271051;22;20953;-43
2023/11/16 12:05:58;;;;;;;223.60;71.47;;;;;;;;;;5007464;28;20217;-43
2023/11/16 12:08:37;;;;;;;219.88;66.72;;;;;;;;;;5010701;28;20276;-42
2023/11/16 12:11:04;;;;;;;213.57;60.45;;;;;;;;;;5011942;28;20177;-42
2023/11/16 12:13:30;;;;;;;221.25;67.78;;;;;;;;;;5012463;28;20192;-43
2023/11/16 12:15:57;;;;;;;215.90;63.53;;;;;;;;;;5004819;28;20207;-42
2023/11/16 12:18:23;;;;;;;217.48;64.50;;;;;;;;;;4978780;28;20428;-42
2023/11/16 12:20:54;;;;;;;217.70;63.67;;;;;;;;;;5014063;28;20176;-42
2023/11/16 12:23:26;;;;;;;218.40;64.72;;;;;;;;;;5013289;28;20437;-42
2023/11/16 12:26:26;;;;;;;255.85;83.50;;;;;;;;;;5893215;22;20692;-44
2023/11/16 12:28:52;;;;;;;222.32;69.35;;;;;;;;;;5007044;28;20219;-44
2023/11/16 12:31:18;;;;;;;219.98;68.55;;;;;;;;;;5007974;28;20212;-44
2023/11/16 12:33:49;;;;;;;216.75;64.70;;;;;;;;;;5010677;28;20186;-43
2023/11/16 12:36:21;;;;;;;218.10;63.72;;;;;;;;;;5010651;28;20204;-44
2023/11/16 12:38:48;;;;;;;215.18;61.20;;;;;;;;;;5011240;28;20255;-44
2023/11/16 12:41:14;;;;;;;218.27;64.75;;;;;;;;;;5011774;28;20213;-45
2023/11/16 12:43:40;;;;;;;219.88;66.80;;;;;;;;;;5011199;28;20234;-44
2023/11/16 12:46:07;;;;;;;216.03;61.77;;;;;;;;;;5010743;28;20196;-44
2023/11/16 12:48:33;;;;;;;213.88;60.55;;;;;;;;;;5002711;28;20904;-44
2023/11/16 12:50:59;;;;;;;219.95;68.05;;;;;;;;;;5011161;28;20270;-44
2023/11/16 12:53:25;;;;;;;220.10;66.00;;;;;;;;;;5009800;28;20219;-44
2023/11/16 12:55:51;;;;;;;218.57;65.75;;;;;;;;;;5011264;28;20434;-44
2023/11/16 12:58:17;;;;;;;218.02;64.93;;;;;;;;;;5010593;28;20176;-44
2023/11/16 13:00:43;;;;;;;217.57;64.90;;;;;;;;;;5010143;28;20648;-44
2023/11/16 13:03:09;;;;;;;218.05;66.28;;;;;;;;;;5010786;28;20181;-44
2023/11/16 13:05:35;;;;;;;223.30;67.10;;;;;;;;;;5005045;28;20208;-44
2023/11/16 13:08:01;;;;;;;216.90;64.47;;;;;;;;;;4994256;28;20434;-44
2023/11/16 13:10:28;;;;;;;216.65;63.35;;;;;;;;;;5011843;28;20405;-44
2023/11/16 13:12:54;;;;;;;212.88;58.97;;;;;;;;;;4993569;28;20219;-44
2023/11/16 13:15:20;;;;;;;220.20;67.00;;;;;;;;;;5006054;28;20184;-44
2023/11/16 13:17:47;;;;;;;215.88;61.60;;;;;;;;;;5001141;28;20231;-44
2023/11/16 13:20:13;;;;;;;215.23;62.40;;;;;;;;;;4997991;28;20181;-44
2023/11/16 13:22:40;;;;;;;218.90;66.45;;;;;;;;;;5011295;28;20172;-44
2023/11/16 13:25:07;;;;;;;214.55;60.63;;;;;;;;;;5013223;28;20165;-44
2023/11/16 13:27:33;;;;;;;215.75;61.70;;;;;;;;;;4997089;28;20715;-44
2023/11/16 13:29:59;;;;;;;217.68;63.80;;;;;;;;;;5009613;28;20231;-44
2023/11/16 13:32:25;;;;;;;216.50;61.83;;;;;;;;;;5005281;28;20264;-44
2023/11/16 13:34:51;;;;;;;216.20;60.87;;;;;;;;;;5001537;28;20301;-44
2023/11/16 13:37:17;;;;;;;219.10;64.30;;;;;;;;;;5012982;28;20470;-44
2023/11/16 13:39:43;;;;;;;215.00;59.15;;;;;;;;;;4995713;28;20404;-45
2023/11/16 13:42:10;;;;;;;215.43;62.90;;;;;;;;;;5013084;28;20186;-44
2023/11/16 13:44:36;;;;;;;217.43;63.88;;;;;;;;;;5001588;28;20410;-44
2023/11/16 13:47:02;;;;;;;217.03;63.17;;;;;;;;;;5004425;28;20671;-44
2023/11/16 13:49:29;;;;;;;216.30;63.17;;;;;;;;;;5009489;28;20499;-45
2023/11/16 13:51:56;;;;;;;217.18;61.97;;;;;;;;;;4996896;28;20410;-44
2023/11/16 13:54:22;;;;;;;214.63;59.97;;;;;;;;;;5014886;28;20176;-44
2023/11/16 13:56:48;;;;;;;212.93;59.00;;;;;;;;;;4997232;28;20201;-44
2023/11/16 13:59:16;;;;;;;216.68;63.42;;;;;;;;;;5008319;28;20168;-44
2023/11/16 14:01:42;;;;;;;216.77;64.90;;;;;;;;;;5005291;28;20169;-44
2023/11/16 14:04:11;;;;;;;215.68;62.67;;;;;;;;;;5000420;28;20202;-44
2023/11/16 14:06:38;;;;;;;219.75;68.70;;;;;;;;;;5012321;28;20192;-44
2023/11/16 14:09:08;;;;;;;215.63;61.90;;;;;;;;;;4995043;28;20169;-44